createdAt,value
2019-04-30T00:01:48.550Z,36.85
2019-04-30T00:04:21.675Z,29.90
2019-04-30T00:06:50.252Z,28.60
2019-04-30T00:09:21.163Z,30.72
2019-04-30T00:11:50.723Z,30.65
2019-04-30T00:14:20.211Z,34.20
2019-04-30T00:16:55.078Z,31.60
2019-04-30T00:19:23.689Z,29.60
2019-04-30T00:21:56.930Z,31.02
2019-04-30T00:24:25.853Z,32.73
2019-04-30T00:26:55.127Z,34.65
2019-04-30T00:29:27.985Z,35.58
2019-04-30T00:32:03.712Z,33.90
2019-04-30T00:34:25.090Z,31.05
2019-04-30T00:36:55.968Z,35.85
2019-04-30T00:39:27.094Z,33.28
2019-04-30T00:41:56.692Z,32.03
2019-04-30T00:44:28.273Z,32.03
2019-04-30T00:46:55.918Z,34.00
2019-04-30T00:49:26.608Z,33.23
2019-04-30T00:51:58.161Z,32.80
2019-04-30T00:54:27.943Z,34.10
2019-04-30T00:56:59.357Z,33.05
2019-04-30T00:59:26.774Z,31.62
2019-04-30T01:02:06.118Z,31.65
2019-04-30T01:04:36.407Z,31.90
2019-04-30T01:07:08.667Z,34.20
2019-04-30T01:09:39.736Z,29.23
2019-04-30T01:12:06.591Z,32.55
2019-04-30T01:14:35.308Z,30.90
2019-04-30T01:17:08.213Z,33.15
2019-04-30T01:19:34.336Z,36.08
2019-04-30T01:22:02.968Z,30.32
2019-04-30T01:24:35.227Z,29.52
2019-04-30T01:27:06.743Z,31.65
2019-04-30T01:29:40.905Z,32.20
2019-04-30T01:32:05.273Z,29.55
2019-04-30T01:34:34.848Z,39.35
2019-04-30T01:37:03.433Z,33.15
2019-04-30T01:39:32.040Z,31.07
2019-04-30T01:42:02.967Z,30.97
2019-04-30T01:44:30.898Z,30.60
2019-04-30T01:46:59.481Z,36.17
2019-04-30T01:49:30.053Z,33.00
2019-04-30T01:52:00.492Z,31.10
2019-04-30T01:54:29.114Z,30.68
2019-04-30T01:57:15.815Z,31.20
2019-04-30T02:00:02.323Z,32.42
2019-04-30T02:02:32.634Z,31.85
2019-04-30T02:05:01.343Z,30.60
2019-04-30T02:07:29.908Z,26.48
2019-04-30T02:09:58.910Z,30.08
2019-04-30T02:12:29.499Z,30.27
2019-04-30T02:14:59.525Z,31.52
2019-04-30T02:17:29.293Z,25.50
2019-04-30T02:19:59.295Z,27.50
2019-04-30T02:22:30.903Z,26.65
2019-04-30T02:24:58.648Z,28.47
2019-04-30T02:27:30.948Z,26.97
2019-04-30T02:30:02.670Z,24.77
2019-04-30T02:32:30.534Z,27.52
2019-04-30T02:35:09.404Z,26.73
2019-04-30T02:37:40.411Z,23.83
2019-04-30T02:40:10.126Z,25.37
2019-04-30T02:42:44.685Z,25.52
2019-04-30T02:45:13.511Z,25.55
2019-04-30T02:47:42.420Z,26.48
2019-04-30T02:50:18.344Z,26.52
2019-04-30T02:52:43.605Z,23.60
2019-04-30T02:55:15.263Z,25.80
2019-04-30T02:57:44.184Z,23.37
2019-04-30T03:00:20.535Z,26.37
2019-04-30T03:02:50.483Z,24.75
2019-04-30T03:05:21.260Z,24.23
2019-04-30T03:07:53.143Z,23.47
2019-04-30T03:10:20.209Z,24.77
2019-04-30T03:12:49.977Z,23.15
2019-04-30T03:15:22.325Z,26.82
2019-04-30T03:18:02.260Z,24.50
2019-04-30T03:20:50.752Z,33.83
2019-04-30T03:23:19.636Z,23.92
2019-04-30T03:25:50.148Z,24.35
2019-04-30T03:28:20.147Z,29.48
2019-04-30T03:30:57.694Z,24.63
2019-04-30T03:33:25.919Z,25.88
2019-04-30T03:35:55.660Z,25.00
2019-04-30T03:38:25.338Z,26.52
2019-04-30T03:40:53.899Z,24.85
2019-04-30T03:43:22.520Z,23.67
2019-04-30T03:45:51.100Z,24.07
2019-04-30T03:48:20.226Z,25.92
2019-04-30T03:50:55.793Z,27.48
2019-04-30T03:53:20.195Z,29.67
2019-04-30T03:55:50.591Z,27.62
2019-04-30T03:58:21.157Z,28.10
2019-04-30T04:00:54.102Z,27.95
2019-04-30T04:03:22.673Z,25.92
2019-04-30T04:06:10.475Z,29.92
2019-04-30T04:08:43.231Z,26.55
2019-04-30T04:11:12.547Z,30.10
2019-04-30T04:13:41.164Z,27.05
2019-04-30T04:16:09.891Z,22.52
2019-04-30T04:18:40.202Z,30.17
2019-04-30T04:21:16.415Z,24.92
2019-04-30T04:23:39.873Z,22.77
2019-04-30T04:26:09.451Z,27.17
2019-04-30T04:28:43.124Z,21.10
2019-04-30T04:31:09.553Z,24.47
2019-04-30T04:33:39.554Z,26.40
2019-04-30T04:36:09.149Z,25.27
2019-04-30T04:38:40.328Z,24.80
2019-04-30T04:41:10.388Z,23.18
2019-04-30T04:43:40.152Z,20.48
2019-04-30T04:46:09.292Z,20.30
2019-04-30T04:48:39.465Z,29.27
2019-04-30T04:51:19.723Z,20.15
2019-04-30T04:53:40.191Z,19.35
2019-04-30T04:56:10.061Z,29.15
2019-04-30T04:58:40.168Z,21.23
2019-04-30T05:01:11.698Z,28.38
2019-04-30T05:03:39.881Z,27.30
2019-04-30T05:06:11.356Z,27.00
2019-04-30T05:08:39.616Z,27.00
2019-04-30T05:11:09.583Z,23.18
2019-04-30T05:13:38.912Z,23.32
2019-04-30T05:16:09.198Z,25.25
2019-04-30T05:18:39.139Z,22.07
2019-04-30T05:21:08.808Z,24.32
2019-04-30T05:23:39.310Z,22.40
2019-04-30T05:26:08.465Z,22.98
2019-04-30T05:28:39.350Z,20.88
2019-04-30T05:31:08.765Z,26.15
2019-04-30T05:33:38.955Z,21.73
2019-04-30T05:36:09.308Z,24.05
2019-04-30T05:38:39.222Z,22.15
2019-04-30T05:41:09.879Z,21.77
2019-04-30T05:43:38.734Z,25.57
2019-04-30T05:46:08.334Z,21.12
2019-04-30T05:48:39.602Z,27.05
2019-04-30T05:51:08.979Z,21.65
2019-04-30T05:53:39.303Z,20.25
2019-04-30T05:56:09.567Z,22.37
2019-04-30T05:58:39.760Z,20.50
2019-04-30T06:01:09.681Z,24.72
2019-04-30T06:03:38.673Z,23.50
2019-04-30T06:06:09.163Z,23.70
2019-04-30T06:08:50.880Z,25.30
2019-04-30T06:11:39.246Z,23.62
2019-04-30T06:14:20.784Z,23.20
2019-04-30T06:16:51.747Z,19.50
2019-04-30T06:19:20.638Z,24.90
2019-04-30T06:21:49.276Z,21.50
2019-04-30T06:24:18.780Z,24.50
2019-04-30T06:26:49.360Z,19.45
2019-04-30T06:29:18.962Z,25.40
2019-04-30T06:31:48.637Z,28.25
2019-04-30T06:34:17.424Z,18.95
2019-04-30T06:36:51.824Z,22.45
2019-04-30T06:39:18.783Z,19.67
2019-04-30T06:41:49.286Z,18.67
2019-04-30T06:44:19.467Z,18.60
2019-04-30T06:46:48.782Z,18.57
2019-04-30T06:49:21.222Z,26.82
2019-04-30T06:51:50.750Z,18.10
2019-04-30T06:54:21.240Z,18.95
2019-04-30T06:56:50.796Z,18.73
2019-04-30T06:59:20.328Z,14.65
2019-04-30T07:01:49.053Z,18.57
2019-04-30T07:04:19.358Z,22.87
2019-04-30T07:06:50.474Z,18.42
2019-04-30T07:09:26.818Z,17.32
2019-04-30T07:11:59.266Z,15.83
2019-04-30T07:17:03.215Z,16.55
2019-04-30T07:19:38.255Z,18.37
2019-04-30T07:22:02.005Z,15.98
2019-04-30T07:24:30.607Z,13.45
2019-04-30T07:27:02.662Z,22.52
2019-04-30T07:29:30.368Z,15.70
2019-04-30T07:32:00.508Z,15.98
2019-04-30T07:34:30.148Z,15.03
2019-04-30T07:37:11.795Z,14.55
2019-04-30T07:39:33.327Z,15.80
2019-04-30T07:42:00.851Z,13.38
2019-04-30T07:47:02.077Z,14.63
2019-04-30T07:49:46.186Z,14.05
2019-04-30T07:52:01.707Z,15.20
2019-04-30T07:54:30.869Z,13.48
2019-04-30T07:57:00.335Z,20.30
2019-04-30T07:59:30.172Z,13.88
2019-04-30T08:04:45.754Z,13.60
2019-04-30T08:07:14.649Z,12.88
2019-04-30T08:09:35.037Z,11.35
2019-04-30T08:09:38.407Z,16.45
2019-04-30T08:09:43.257Z,13.93
2019-04-30T08:12:21.771Z,11.95
2019-04-30T08:14:43.156Z,12.45
2019-04-30T08:17:11.737Z,15.95
2019-04-30T08:19:41.054Z,12.65
2019-04-30T08:22:09.824Z,16.12
2019-04-30T08:24:39.128Z,12.20
2019-04-30T08:27:09.697Z,12.73
2019-04-30T08:29:39.471Z,14.55
2019-04-30T08:32:09.059Z,17.07
2019-04-30T08:34:39.374Z,13.80
2019-04-30T08:37:17.045Z,14.73
2019-04-30T08:39:39.734Z,14.60
2019-04-30T08:42:08.974Z,13.68
2019-04-30T08:44:39.528Z,16.35
2019-04-30T08:47:08.619Z,11.97
2019-04-30T08:49:38.113Z,37.40
2019-04-30T08:52:07.740Z,12.13
2019-04-30T08:54:36.392Z,13.30
2019-04-30T08:57:05.944Z,15.10
2019-04-30T08:59:34.504Z,16.12
2019-04-30T09:02:13.611Z,13.58
2019-04-30T09:04:33.308Z,15.53
2019-04-30T09:07:01.876Z,14.90
2019-04-30T09:09:30.449Z,13.98
2019-04-30T09:11:59.298Z,13.80
2019-04-30T09:14:29.695Z,15.25
2019-04-30T09:16:59.580Z,14.80
2019-04-30T09:19:29.847Z,11.73
2019-04-30T09:21:59.103Z,14.10
2019-04-30T09:24:30.781Z,11.65
2019-04-30T09:26:59.080Z,23.25
2019-04-30T09:29:29.318Z,13.03
2019-04-30T09:31:59.445Z,13.90
2019-04-30T09:34:29.046Z,18.92
2019-04-30T09:36:58.897Z,23.30
2019-04-30T09:39:29.388Z,13.72
2019-04-30T09:41:59.519Z,14.55
2019-04-30T09:44:30.554Z,12.25
2019-04-30T09:46:58.835Z,12.33
2019-04-30T09:49:29.289Z,21.77
2019-04-30T09:51:59.518Z,14.03
2019-04-30T09:54:29.004Z,14.73
2019-04-30T09:56:59.018Z,15.55
2019-04-30T09:59:29.111Z,14.55
2019-04-30T10:01:57.846Z,21.42
2019-04-30T10:04:26.808Z,10.68
2019-04-30T10:06:56.142Z,13.03
2019-04-30T10:09:24.710Z,31.27
2019-04-30T10:12:06.941Z,20.27
2019-04-30T10:14:35.792Z,19.85
2019-04-30T10:17:23.608Z,14.40
2019-04-30T10:19:52.252Z,11.60
2019-04-30T10:22:21.889Z,15.08
2019-04-30T10:24:50.736Z,12.55
2019-04-30T10:27:20.214Z,13.43
2019-04-30T10:29:49.696Z,13.88
2019-04-30T10:32:19.300Z,14.93
2019-04-30T10:34:48.020Z,20.80
2019-04-30T10:37:18.747Z,14.53
2019-04-30T10:39:49.100Z,14.68
2019-04-30T10:42:17.735Z,15.03
2019-04-30T10:44:46.433Z,15.70
2019-04-30T10:47:15.687Z,15.93
2019-04-30T10:49:45.245Z,17.65
2019-04-30T10:52:13.872Z,19.87
2019-04-30T10:54:42.488Z,24.12
2019-04-30T10:57:11.060Z,101.15
2019-04-30T10:59:40.701Z,15.40
2019-04-30T11:02:09.444Z,14.60
2019-04-30T11:04:38.081Z,13.88
2019-04-30T11:07:08.531Z,13.32
2019-04-30T11:09:39.355Z,14.80
2019-04-30T11:12:09.509Z,19.10
2019-04-30T11:14:38.143Z,13.18
2019-04-30T11:17:07.047Z,14.00
2019-04-30T11:19:35.814Z,12.30
2019-04-30T11:22:05.694Z,16.80
2019-04-30T11:24:37.934Z,13.40
2019-04-30T11:27:05.054Z,13.20
2019-04-30T11:29:33.888Z,12.37
2019-04-30T11:32:04.466Z,15.05
2019-04-30T11:34:33.115Z,17.55
2019-04-30T11:37:01.756Z,11.25
2019-04-30T11:39:30.395Z,12.43
2019-04-30T11:41:59.117Z,11.73
2019-04-30T11:44:31.301Z,17.07
2019-04-30T11:47:01.129Z,13.45
2019-04-30T11:49:29.704Z,13.55
2019-04-30T11:51:58.298Z,13.20
2019-04-30T11:54:26.936Z,13.62
2019-04-30T11:56:55.585Z,13.70
2019-04-30T11:59:24.509Z,11.38
2019-04-30T12:01:54.705Z,11.63
2019-04-30T12:04:23.266Z,12.35
2019-04-30T12:06:53.161Z,14.05
2019-04-30T12:09:39.803Z,15.93
2019-04-30T12:12:09.137Z,16.05
2019-04-30T12:14:39.552Z,16.25
2019-04-30T12:17:08.406Z,10.28
2019-04-30T12:19:38.742Z,15.20
2019-04-30T12:22:07.198Z,13.58
2019-04-30T12:24:35.758Z,13.15
2019-04-30T12:27:04.503Z,11.55
2019-04-30T12:29:33.076Z,16.17
2019-04-30T12:32:01.664Z,13.22
2019-04-30T12:34:30.276Z,13.08
2019-04-30T12:37:00.812Z,16.52
2019-04-30T12:39:30.096Z,17.52
2019-04-30T12:41:59.855Z,13.68
2019-04-30T12:44:29.079Z,13.18
2019-04-30T12:46:58.675Z,14.07
2019-04-30T12:49:28.814Z,13.50
2019-04-30T12:52:04.818Z,16.87
2019-04-30T12:54:47.134Z,16.37
2019-04-30T12:57:29.609Z,12.10
2019-04-30T13:02:28.989Z,17.05
2019-04-30T13:05:00.443Z,12.25
2019-04-30T13:07:30.352Z,18.07
2019-04-30T13:10:01.599Z,14.47
2019-04-30T13:12:29.859Z,16.32
2019-04-30T13:14:58.634Z,12.25
2019-04-30T13:17:27.274Z,13.00
2019-04-30T13:19:55.874Z,14.40
2019-04-30T13:22:26.059Z,15.08
2019-04-30T13:24:54.789Z,13.18
2019-04-30T13:27:23.405Z,14.28
2019-04-30T13:30:09.959Z,20.10
2019-04-30T13:32:40.182Z,16.55
2019-04-30T13:35:09.350Z,10.75
2019-04-30T13:37:39.713Z,13.35
2019-04-30T13:40:10.179Z,15.00
2019-04-30T13:42:48.788Z,12.73
2019-04-30T13:45:18.686Z,12.33
2019-04-30T13:47:49.708Z,13.15
2019-04-30T13:50:19.736Z,12.25
2019-04-30T13:52:48.884Z,16.42
2019-04-30T13:55:19.226Z,14.73
2019-04-30T13:57:47.858Z,15.25
2019-04-30T14:00:21.695Z,15.10
2019-04-30T14:03:00.593Z,14.47
2019-04-30T14:05:28.265Z,12.75
2019-04-30T14:08:13.627Z,12.40
2019-04-30T14:10:44.053Z,11.30
2019-04-30T14:13:12.788Z,14.18
2019-04-30T14:15:41.901Z,15.03
2019-04-30T14:18:10.520Z,14.03
2019-04-30T14:20:39.173Z,13.88
2019-04-30T14:23:08.534Z,13.70
2019-04-30T14:25:38.049Z,14.40
2019-04-30T14:28:06.712Z,13.00
2019-04-30T14:30:35.425Z,14.13
2019-04-30T14:33:05.075Z,12.30
2019-04-30T14:35:35.821Z,15.50
2019-04-30T14:38:05.242Z,12.53
2019-04-30T14:40:34.376Z,16.40
2019-04-30T14:43:05.125Z,12.03
2019-04-30T14:45:35.873Z,12.82
2019-04-30T14:48:07.092Z,20.52
2019-04-30T14:50:40.402Z,13.78
2019-04-30T14:53:14.421Z,12.25
2019-04-30T14:56:08.718Z,12.00
2019-04-30T14:58:42.481Z,13.62
2019-04-30T15:01:19.340Z,13.53
2019-04-30T15:03:49.472Z,13.75
2019-04-30T15:06:19.376Z,14.87
2019-04-30T15:08:49.499Z,13.18
2019-04-30T15:11:19.025Z,11.25
2019-04-30T15:13:49.432Z,12.50
2019-04-30T15:16:18.215Z,14.68
2019-04-30T15:18:46.858Z,14.85
2019-04-30T15:21:16.491Z,11.97
2019-04-30T15:24:01.579Z,10.50
2019-04-30T15:26:29.153Z,9.45
2019-04-30T15:28:59.873Z,18.25
2019-04-30T15:31:29.652Z,13.75
2019-04-30T15:34:02.813Z,11.28
2019-04-30T15:36:30.224Z,12.35
2019-04-30T15:39:06.345Z,14.70
2019-04-30T15:41:34.929Z,12.35
2019-04-30T15:44:03.819Z,13.38
2019-04-30T15:46:32.843Z,14.10
2019-04-30T15:49:01.415Z,13.08
2019-04-30T15:51:30.165Z,15.03
2019-04-30T15:53:58.729Z,13.58
2019-04-30T15:56:35.258Z,12.65
2019-04-30T15:59:05.875Z,15.43
2019-04-30T16:01:34.643Z,11.65
2019-04-30T16:04:03.758Z,13.95
2019-04-30T16:06:32.342Z,16.10
2019-04-30T16:09:05.291Z,12.80
2019-04-30T16:11:41.882Z,17.35
2019-04-30T16:14:15.130Z,13.58
2019-04-30T16:16:45.502Z,11.95
2019-04-30T16:19:14.108Z,10.75
2019-04-30T16:21:43.030Z,13.93
2019-04-30T16:24:11.727Z,10.98
2019-04-30T16:26:48.986Z,12.63
2019-04-30T16:29:10.680Z,11.70
2019-04-30T16:31:39.392Z,12.58
2019-04-30T16:34:08.162Z,12.40
2019-04-30T16:36:36.726Z,12.78
2019-04-30T16:39:08.716Z,14.30
2019-04-30T16:41:40.528Z,14.10
2019-04-30T16:44:09.188Z,12.00
2019-04-30T16:46:39.526Z,11.45
2019-04-30T16:49:10.001Z,12.55
2019-04-30T16:51:38.671Z,13.25
2019-04-30T16:54:08.664Z,12.30
2019-04-30T16:56:38.658Z,10.72
2019-04-30T16:59:09.064Z,14.45
2019-04-30T17:01:37.763Z,13.50
2019-04-30T17:04:13.883Z,14.28
2019-04-30T17:06:50.013Z,13.00
2019-04-30T17:09:25.761Z,11.68
2019-04-30T17:12:02.057Z,15.50
2019-04-30T17:14:34.157Z,12.03
2019-04-30T17:17:04.749Z,16.40
2019-04-30T17:19:33.413Z,13.90
2019-04-30T17:22:02.007Z,11.15
2019-04-30T17:24:30.545Z,10.88
2019-04-30T17:26:59.354Z,13.00
2019-04-30T17:29:27.968Z,15.43
2019-04-30T17:31:56.540Z,15.15
2019-04-30T17:34:25.143Z,16.48
2019-04-30T17:36:53.703Z,14.78
2019-04-30T17:39:22.359Z,13.88
2019-04-30T17:41:50.964Z,13.08
2019-04-30T17:44:19.519Z,18.00
2019-04-30T17:46:49.717Z,12.18
2019-04-30T17:49:18.986Z,9.88
2019-04-30T17:51:49.126Z,11.55
2019-04-30T17:54:19.250Z,15.45
2019-04-30T17:56:49.207Z,12.75
2019-04-30T17:59:17.791Z,15.90
2019-04-30T18:01:56.967Z,12.78
2019-04-30T18:04:25.560Z,10.75
2019-04-30T18:06:54.589Z,17.50
2019-04-30T18:09:23.249Z,13.35
2019-04-30T18:11:51.807Z,15.95
2019-04-30T18:14:20.515Z,13.28
2019-04-30T18:16:49.157Z,15.45
2019-04-30T18:19:21.902Z,17.20
2019-04-30T18:22:01.290Z,18.07
2019-04-30T18:24:32.107Z,14.07
2019-04-30T18:27:21.248Z,13.15
2019-04-30T18:29:51.169Z,12.58
2019-04-30T18:32:21.903Z,11.28
2019-04-30T18:34:50.619Z,14.58
2019-04-30T18:37:19.223Z,16.50
2019-04-30T18:39:47.845Z,11.10
2019-04-30T18:42:16.551Z,12.50
2019-04-30T18:44:45.131Z,13.53
2019-04-30T18:47:13.851Z,12.78
2019-04-30T18:49:44.435Z,15.05
2019-04-30T18:52:13.655Z,10.95
2019-04-30T18:54:42.581Z,14.28
2019-04-30T18:57:11.341Z,15.78
2019-04-30T18:59:40.497Z,16.02
2019-04-30T19:02:10.731Z,13.93
2019-04-30T19:04:40.881Z,18.87
2019-04-30T19:07:11.573Z,14.43
2019-04-30T19:09:42.589Z,17.65
2019-04-30T19:12:13.131Z,18.25
2019-04-30T19:14:59.154Z,15.68
2019-04-30T19:17:45.747Z,15.85
2019-04-30T19:20:18.889Z,16.15
2019-04-30T19:22:47.497Z,14.98
2019-04-30T19:25:16.455Z,16.27
2019-04-30T19:27:45.281Z,17.10
2019-04-30T19:30:14.236Z,19.95
2019-04-30T19:32:43.455Z,15.55
2019-04-30T19:35:12.350Z,18.32
2019-04-30T19:37:42.074Z,21.42
2019-04-30T19:40:11.224Z,18.98
2019-04-30T19:42:40.423Z,22.02
2019-04-30T19:45:12.368Z,16.23
2019-04-30T19:47:39.744Z,19.48
2019-04-30T19:50:09.374Z,18.85
2019-04-30T19:52:38.166Z,20.43
2019-04-30T19:55:07.793Z,19.82
2019-04-30T19:57:36.736Z,18.23
2019-04-30T20:00:06.534Z,24.37
2019-04-30T20:02:35.827Z,20.40
2019-04-30T20:05:05.652Z,17.60
2019-04-30T20:07:38.267Z,18.62
2019-04-30T20:10:09.055Z,17.48
2019-04-30T20:12:38.835Z,20.17
2019-04-30T20:15:17.212Z,21.42
2019-04-30T20:17:39.176Z,23.50
2019-04-30T20:20:10.972Z,20.88
2019-04-30T20:22:39.974Z,18.17
2019-04-30T20:25:09.269Z,27.62
2019-04-30T20:27:39.628Z,21.85
2019-04-30T20:30:09.894Z,25.55
2019-04-30T20:32:39.286Z,26.23
2019-04-30T20:35:09.709Z,29.48
2019-04-30T20:37:55.903Z,19.73
2019-04-30T20:40:26.175Z,21.68
2019-04-30T20:42:54.762Z,22.25
2019-04-30T20:45:23.372Z,25.95
2019-04-30T20:47:51.936Z,28.52
2019-04-30T20:50:20.514Z,28.10
2019-04-30T20:52:49.156Z,30.72
2019-04-30T20:55:17.838Z,26.75
2019-04-30T20:57:46.403Z,28.62
2019-04-30T21:00:16.040Z,27.90
2019-04-30T21:02:44.614Z,27.77
2019-04-30T21:05:13.252Z,29.07
2019-04-30T21:07:41.893Z,29.25
2019-04-30T21:10:11.018Z,30.80
2019-04-30T21:12:40.845Z,28.77
2019-04-30T21:15:09.752Z,31.97
2019-04-30T21:17:38.322Z,28.40
2019-04-30T21:20:09.491Z,27.02
2019-04-30T21:22:38.867Z,32.20
2019-04-30T21:25:09.019Z,26.93
2019-04-30T21:27:40.128Z,31.57
2019-04-30T21:30:09.678Z,29.27
2019-04-30T21:32:56.226Z,29.32
2019-04-30T21:35:26.547Z,30.43
2019-04-30T21:37:59.043Z,27.13
2019-04-30T21:40:29.500Z,32.75
2019-04-30T21:42:57.814Z,29.77
2019-04-30T21:45:26.512Z,23.32
2019-04-30T21:47:56.356Z,22.65
2019-04-30T21:50:26.178Z,26.27
2019-04-30T21:52:54.795Z,23.52
2019-04-30T21:55:23.362Z,33.18
2019-04-30T21:57:52.000Z,33.80
2019-04-30T22:00:22.600Z,28.42
2019-04-30T22:02:51.290Z,29.27
2019-04-30T22:05:19.833Z,29.72
2019-04-30T22:07:48.649Z,32.42
2019-04-30T22:10:19.106Z,30.85
2019-04-30T22:12:48.918Z,32.00
2019-04-30T22:15:17.976Z,34.23
2019-04-30T22:17:46.655Z,31.55
2019-04-30T22:20:21.082Z,29.18
2019-04-30T22:22:49.720Z,28.57
2019-04-30T22:25:19.358Z,31.95
2019-04-30T22:27:47.988Z,29.82
2019-04-30T22:30:19.923Z,37.73
2019-04-30T22:32:49.499Z,33.67
2019-04-30T22:35:26.075Z,32.30
2019-04-30T22:37:56.393Z,32.20
2019-04-30T22:40:25.335Z,30.05
2019-04-30T22:42:55.894Z,23.83
2019-04-30T22:45:27.290Z,29.32
2019-04-30T22:47:58.737Z,27.85
2019-04-30T22:50:28.853Z,26.57
2019-04-30T22:52:59.110Z,28.27
2019-04-30T22:55:29.043Z,28.95
2019-04-30T22:57:57.661Z,26.20
2019-04-30T23:00:43.927Z,30.92
2019-04-30T23:03:14.321Z,30.90
2019-04-30T23:05:43.022Z,28.60
2019-04-30T23:08:12.878Z,28.73
2019-04-30T23:10:42.047Z,30.32
2019-04-30T23:13:11.280Z,35.70
2019-04-30T23:15:40.111Z,30.30
2019-04-30T23:18:08.795Z,29.57
2019-04-30T23:20:37.327Z,32.05
2019-04-30T23:23:06.275Z,25.80
2019-04-30T23:25:34.977Z,27.52
2019-04-30T23:28:03.602Z,30.10
2019-04-30T23:30:32.240Z,30.23
2019-04-30T23:33:00.855Z,28.10
2019-04-30T23:35:29.415Z,29.77
2019-04-30T23:37:58.361Z,26.12
2019-04-30T23:40:30.435Z,30.50
2019-04-30T23:43:00.959Z,28.95
2019-04-30T23:45:29.512Z,25.40
2019-04-30T23:47:58.105Z,29.92
2019-04-30T23:50:26.798Z,28.67
2019-04-30T23:52:56.319Z,21.93
2019-04-30T23:55:24.910Z,26.85
2019-04-30T23:57:53.497Z,22.37
